createdAt,value
2022-10-09T00:00:39.884Z,102183.22
2022-10-09T00:03:09.439Z,102185.28
2022-10-09T00:05:37.535Z,102181.16
2022-10-09T00:08:05.672Z,102175.88
2022-10-09T00:10:33.675Z,102159.41
2022-10-09T00:13:02.367Z,102157.25
2022-10-09T00:15:30.449Z,102164.25
2022-10-09T00:18:08.809Z,102160.59
2022-10-09T00:20:38.767Z,102158.53
2022-10-09T00:23:06.986Z,102152.63
2022-10-09T00:25:38.772Z,102162.03
2022-10-09T00:28:06.899Z,102141.50
2022-10-09T00:30:35.065Z,102126.25
2022-10-09T00:33:03.403Z,102137.50
2022-10-09T00:35:32.752Z,102134.84
2022-10-09T00:38:01.360Z,102140.69
2022-10-09T00:40:29.373Z,102127.25
2022-10-09T00:42:57.744Z,102135.84
2022-10-09T00:45:26.374Z,102136.72
2022-10-09T00:47:55.015Z,102121.56
2022-10-09T00:50:23.897Z,102112.72
2022-10-09T00:52:54.605Z,102124.97
2022-10-09T00:55:23.004Z,102110.59
2022-10-09T00:57:51.263Z,102107.94
2022-10-09T01:00:19.339Z,102122.69
2022-10-09T01:02:47.703Z,102102.47
2022-10-09T01:05:17.039Z,102115.06
2022-10-09T01:07:48.032Z,102113.25
2022-10-09T01:10:25.879Z,102116.16
2022-10-09T01:12:56.214Z,102106.72
2022-10-09T01:15:27.798Z,102107.56
2022-10-09T01:17:59.185Z,102118.81
2022-10-09T01:20:35.180Z,102085.91
2022-10-09T01:23:40.413Z,102107.91
2022-10-09T01:26:16.874Z,102076.59
2022-10-09T01:28:48.307Z,102084.22
2022-10-09T01:31:16.527Z,102067.06
2022-10-09T01:33:44.547Z,102066.09
2022-10-09T01:36:12.618Z,102072.53
2022-10-09T01:38:40.899Z,102062.09
2022-10-09T01:41:11.618Z,102082.41
2022-10-09T01:43:39.648Z,102082.66
2022-10-09T01:46:22.413Z,102079.91
2022-10-09T01:49:08.747Z,102078.19
2022-10-09T01:51:40.668Z,102076.72
2022-10-09T01:54:08.803Z,102072.41
2022-10-09T01:56:36.775Z,102039.75
2022-10-09T01:59:06.759Z,102068.06
2022-10-09T02:01:37.860Z,102069.75
2022-10-09T02:04:08.930Z,102055.72
2022-10-09T02:06:37.184Z,102028.41
2022-10-09T02:09:06.479Z,102050.41
2022-10-09T02:11:34.514Z,102045.09
2022-10-09T02:14:02.483Z,102048.06
2022-10-09T02:16:37.319Z,102018.50
2022-10-09T02:19:11.025Z,102033.47
2022-10-09T02:21:43.010Z,102030.19
2022-10-09T02:24:16.536Z,102025.13
2022-10-09T02:26:46.950Z,102017.75
2022-10-09T02:29:15.374Z,102004.22
2022-10-09T02:31:46.030Z,102008.91
2022-10-09T02:34:18.158Z,102006.13
2022-10-09T02:36:46.653Z,101994.78
2022-10-09T02:39:16.728Z,101992.75
2022-10-09T02:41:44.750Z,101991.91
2022-10-09T02:44:12.731Z,101992.84
2022-10-09T02:46:41.417Z,101981.75
2022-10-09T02:49:09.576Z,101978.63
2022-10-09T02:51:41.280Z,101975.94
2022-10-09T02:54:18.012Z,101972.19
2022-10-09T02:56:46.482Z,101960.56
2022-10-09T02:59:14.507Z,101959.50
2022-10-09T03:01:42.748Z,101952.31
2022-10-09T03:04:10.808Z,101954.84
2022-10-09T03:06:40.171Z,101956.88
2022-10-09T03:09:08.499Z,101950.19
2022-10-09T03:11:37.520Z,101944.34
2022-10-09T03:14:08.767Z,101941.34
2022-10-09T03:16:37.095Z,101943.47
2022-10-09T03:19:09.500Z,101939.44
2022-10-09T03:21:37.641Z,101942.94
2022-10-09T03:24:09.519Z,101942.63
2022-10-09T03:26:37.573Z,101931.41
2022-10-09T03:29:07.975Z,101929.41
2022-10-09T03:31:52.014Z,101926.13
2022-10-09T03:34:21.672Z,101922.16
2022-10-09T03:36:50.280Z,101922.41
2022-10-09T03:39:19.791Z,101920.28
2022-10-09T03:41:47.838Z,101909.75
2022-10-09T03:44:18.491Z,101905.03
2022-10-09T03:46:46.756Z,101891.22
2022-10-09T03:49:18.727Z,101901.78
2022-10-09T03:51:46.762Z,101890.06
2022-10-09T03:54:14.810Z,101882.47
2022-10-09T03:56:44.318Z,101888.88
2022-10-09T03:59:12.464Z,101877.19
2022-10-09T04:01:40.499Z,101882.31
2022-10-09T04:04:08.444Z,101865.19
2022-10-09T04:06:36.411Z,101866.88
2022-10-09T04:09:04.466Z,101863.25
2022-10-09T04:11:33.558Z,101866.09
2022-10-09T04:14:02.938Z,101853.06
2022-10-09T04:16:31.019Z,101861.72
2022-10-09T04:18:59.574Z,101850.53
2022-10-09T04:21:29.863Z,101850.75
2022-10-09T04:23:57.877Z,101843.91
2022-10-09T04:26:25.884Z,101850.66
2022-10-09T04:28:55.044Z,101854.28
2022-10-09T04:31:24.534Z,101850.88
2022-10-09T04:33:55.843Z,101849.38
2022-10-09T04:36:23.965Z,101846.53
2022-10-09T04:38:55.140Z,101848.97
2022-10-09T04:41:23.252Z,101848.78
2022-10-09T04:43:55.344Z,101842.16
2022-10-09T04:46:24.946Z,101827.78
2022-10-09T04:48:52.935Z,101824.41
2022-10-09T04:51:20.957Z,101833.41
2022-10-09T04:53:49.240Z,101834.91
2022-10-09T04:56:18.431Z,101826.94
2022-10-09T04:58:46.599Z,101805.16
2022-10-09T05:01:16.457Z,101820.56
2022-10-09T05:03:46.015Z,101817.59
2022-10-09T05:07:42.905Z,101824.97
2022-10-09T05:10:11.222Z,101815.31
2022-10-09T05:12:39.166Z,101815.75
2022-10-09T05:15:08.262Z,101802.34
2022-10-09T05:17:36.377Z,101801.69
2022-10-09T05:20:06.425Z,101795.25
2022-10-09T05:22:34.385Z,101802.13
2022-10-09T05:25:03.514Z,101781.09
2022-10-09T05:27:31.638Z,101775.22
2022-10-09T05:29:59.868Z,101778.63
2022-10-09T05:32:27.850Z,101775.81
2022-10-09T05:34:55.971Z,101779.78
2022-10-09T05:37:25.362Z,101771.53
2022-10-09T05:39:53.427Z,101768.59
2022-10-09T05:42:22.592Z,101761.91
2022-10-09T05:44:50.908Z,101761.38
2022-10-09T05:47:21.636Z,101734.44
2022-10-09T05:49:49.637Z,101748.78
2022-10-09T05:52:17.596Z,101751.19
2022-10-09T05:54:46.983Z,101746.84
2022-10-09T05:57:15.117Z,101748.53
2022-10-09T05:59:43.089Z,101741.50
2022-10-09T06:02:11.178Z,101715.97
2022-10-09T06:04:42.130Z,101741.75
2022-10-09T06:07:10.196Z,101743.19
2022-10-09T06:09:38.172Z,101746.84
2022-10-09T06:12:08.027Z,101731.41
2022-10-09T06:14:36.023Z,101738.16
2022-10-09T06:17:04.099Z,101724.00
2022-10-09T06:19:32.156Z,101736.63
2022-10-09T06:22:02.632Z,101734.53
2022-10-09T06:24:36.765Z,101726.16
2022-10-09T06:27:04.949Z,101722.50
2022-10-09T06:29:34.416Z,101722.81
2022-10-09T06:32:02.485Z,101727.00
2022-10-09T06:34:30.418Z,101716.94
2022-10-09T06:36:58.531Z,101726.63
2022-10-09T06:39:27.508Z,101718.47
2022-10-09T06:41:58.945Z,101694.72
2022-10-09T06:44:55.090Z,101721.84
2022-10-09T06:47:24.753Z,101691.09
2022-10-09T06:49:52.999Z,101715.66
2022-10-09T06:52:21.745Z,101707.66
2022-10-09T06:54:49.871Z,101709.09
2022-10-09T06:57:17.864Z,101695.31
2022-10-09T06:59:46.038Z,101708.94
2022-10-09T07:02:15.593Z,101704.84
2022-10-09T07:04:43.672Z,101708.94
2022-10-09T07:07:11.678Z,101703.47
2022-10-09T07:09:40.942Z,101688.88
2022-10-09T07:12:09.045Z,101714.53
2022-10-09T07:14:40.730Z,101704.28
2022-10-09T07:17:09.326Z,101691.09
2022-10-09T07:19:38.932Z,101693.63
2022-10-09T07:22:11.340Z,101708.31
2022-10-09T07:24:39.495Z,101706.19
2022-10-09T07:27:07.494Z,101709.44
2022-10-09T07:29:35.486Z,101717.97
2022-10-09T07:32:06.984Z,101713.22
2022-10-09T07:34:39.494Z,101696.25
2022-10-09T07:37:07.450Z,101711.78
2022-10-09T07:39:36.445Z,101708.72
2022-10-09T07:42:04.775Z,101707.84
2022-10-09T07:44:32.949Z,101724.72
2022-10-09T07:47:00.999Z,101720.75
2022-10-09T07:49:29.078Z,101703.63
2022-10-09T07:52:00.794Z,101697.44
2022-10-09T07:54:28.799Z,101701.38
2022-10-09T07:56:57.014Z,101713.41
2022-10-09T07:59:25.146Z,101694.59
2022-10-09T08:01:53.217Z,101710.13
2022-10-09T08:04:27.103Z,101706.59
2022-10-09T08:06:58.299Z,101701.66
2022-10-09T08:09:27.837Z,101701.22
2022-10-09T08:11:55.971Z,101684.63
2022-10-09T08:14:28.082Z,101699.41
2022-10-09T08:16:56.046Z,101697.69
2022-10-09T08:19:24.091Z,101697.91
2022-10-09T08:21:56.732Z,101671.66
2022-10-09T08:24:28.638Z,101689.53
2022-10-09T08:26:56.599Z,101676.72
2022-10-09T08:29:25.858Z,101690.41
2022-10-09T08:31:54.459Z,101668.34
2022-10-09T08:34:22.460Z,101665.88
2022-10-09T08:36:51.818Z,101679.25
2022-10-09T08:39:21.371Z,101677.63
2022-10-09T08:41:52.826Z,101679.06
2022-10-09T08:44:22.108Z,101669.09
2022-10-09T08:46:59.644Z,101674.19
2022-10-09T08:49:33.305Z,101664.16
2022-10-09T08:52:06.965Z,101663.03
2022-10-09T08:54:37.267Z,101665.47
2022-10-09T08:57:14.978Z,101664.00
2022-10-09T08:59:45.967Z,101661.69
2022-10-09T09:02:25.758Z,101664.72
2022-10-09T09:05:00.829Z,101664.75
2022-10-09T09:07:32.555Z,101656.41
2022-10-09T09:10:10.515Z,101662.16
2022-10-09T09:12:45.623Z,101645.78
2022-10-09T09:15:25.434Z,101645.16
2022-10-09T09:17:55.602Z,101643.16
2022-10-09T09:20:26.290Z,101638.13
2022-10-09T09:22:59.394Z,101622.41
2022-10-09T09:25:28.800Z,101642.88
2022-10-09T09:28:01.547Z,101631.81
2022-10-09T09:30:30.759Z,101634.19
2022-10-09T09:33:23.310Z,101631.31
2022-10-09T09:35:53.927Z,101616.06
2022-10-09T09:38:22.397Z,101625.47
2022-10-09T09:40:50.849Z,101624.13
2022-10-09T09:43:24.318Z,101612.22
2022-10-09T09:45:53.949Z,101601.34
2022-10-09T09:48:28.168Z,101613.22
2022-10-09T09:53:42.029Z,101598.75
2022-10-09T09:56:10.261Z,101605.22
2022-10-09T09:58:40.486Z,101586.94
2022-10-09T10:01:08.739Z,101590.63
2022-10-09T10:03:36.948Z,101586.91
2022-10-09T10:06:05.279Z,101571.78
2022-10-09T10:08:35.331Z,101581.38
2022-10-09T10:11:04.502Z,101565.94
2022-10-09T10:13:35.845Z,101561.31
2022-10-09T10:16:06.313Z,101562.00
2022-10-09T10:18:39.053Z,101561.34
2022-10-09T10:21:11.672Z,101549.81
2022-10-09T10:23:41.909Z,101552.25
2022-10-09T10:26:25.471Z,101546.63
2022-10-09T10:28:54.855Z,101534.09
2022-10-09T10:31:35.247Z,101542.97
2022-10-09T10:34:03.410Z,101537.56
2022-10-09T10:36:31.804Z,101544.25
2022-10-09T10:39:01.515Z,101533.38
2022-10-09T10:41:34.045Z,101519.44
2022-10-09T10:44:04.864Z,101528.34
2022-10-09T10:46:38.507Z,101521.16
2022-10-09T10:49:08.592Z,101522.63
2022-10-09T10:51:51.696Z,101512.13
2022-10-09T10:54:25.806Z,101514.34
2022-10-09T10:56:57.784Z,101513.16
2022-10-09T11:02:23.909Z,101502.19
2022-10-09T11:04:53.543Z,101501.03
2022-10-09T11:07:25.257Z,101493.31
2022-10-09T11:09:58.152Z,101482.31
2022-10-09T11:12:47.439Z,101476.72
2022-10-09T11:15:21.216Z,101470.53
2022-10-09T11:17:53.940Z,101464.56
2022-10-09T11:20:40.080Z,101466.19
2022-10-09T11:23:10.883Z,101458.00
2022-10-09T11:25:42.436Z,101455.53
2022-10-09T11:28:12.797Z,101456.06
2022-10-09T11:30:43.241Z,101449.50
2022-10-09T11:33:22.813Z,101441.44
2022-10-09T11:35:53.367Z,101436.50
2022-10-09T11:38:25.826Z,101442.41
2022-10-09T11:40:54.152Z,101443.75
2022-10-09T11:43:40.463Z,101436.13
2022-10-09T11:46:10.398Z,101431.09
2022-10-09T11:48:43.749Z,101432.34
2022-10-09T11:51:14.036Z,101435.50
2022-10-09T11:53:42.077Z,101437.50
2022-10-09T11:56:21.366Z,101431.94
2022-10-09T11:58:58.524Z,101438.00
2022-10-09T12:01:27.959Z,101425.16
2022-10-09T12:04:05.619Z,101428.41
2022-10-09T12:06:34.006Z,101425.25
2022-10-09T12:09:03.158Z,101419.41
2022-10-09T12:11:31.632Z,101406.03
2022-10-09T12:14:00.953Z,101405.22
2022-10-09T12:16:40.503Z,101395.47
2022-10-09T12:19:21.233Z,101397.31
2022-10-09T12:21:52.138Z,101388.34
2022-10-09T12:24:22.184Z,101370.75
2022-10-09T12:26:51.691Z,101381.59
2022-10-09T12:29:22.954Z,101374.94
2022-10-09T12:31:51.976Z,101380.91
2022-10-09T12:34:22.371Z,101368.03
2022-10-09T12:36:50.560Z,101370.69
2022-10-09T12:39:21.196Z,101360.75
2022-10-09T12:41:50.343Z,101353.75
2022-10-09T12:44:25.458Z,101352.50
2022-10-09T12:46:53.531Z,101351.91
2022-10-09T12:49:23.932Z,101339.34
2022-10-09T12:51:55.337Z,101344.38
2022-10-09T12:54:25.578Z,101341.66
2022-10-09T12:56:53.776Z,101339.88
2022-10-09T12:59:22.020Z,101339.34
2022-10-09T13:01:51.247Z,101333.72
2022-10-09T13:04:28.463Z,101325.44
2022-10-09T13:06:57.040Z,101330.09
2022-10-09T13:09:26.280Z,101336.50
2022-10-09T13:11:56.135Z,101324.75
2022-10-09T13:14:29.590Z,101336.53
2022-10-09T13:16:59.097Z,101321.16
2022-10-09T13:19:29.608Z,101319.34
2022-10-09T13:22:07.837Z,101321.81
2022-10-09T13:24:36.642Z,101322.00
2022-10-09T13:27:05.502Z,101304.94
2022-10-09T13:29:33.756Z,101303.03
2022-10-09T13:32:02.996Z,101304.41
2022-10-09T13:34:32.374Z,101298.31
2022-10-09T13:37:00.583Z,101305.13
2022-10-09T13:39:29.879Z,101296.13
2022-10-09T13:41:57.964Z,101288.44
2022-10-09T13:44:26.384Z,101292.69
2022-10-09T13:46:54.489Z,101282.88
2022-10-09T13:49:22.669Z,101273.09
2022-10-09T13:51:52.122Z,101258.31
2022-10-09T13:54:20.158Z,101254.28
2022-10-09T13:56:48.455Z,101266.09
2022-10-09T13:59:16.778Z,101249.44
2022-10-09T14:01:44.845Z,101257.19
2022-10-09T14:04:14.125Z,101232.69
2022-10-09T14:06:42.584Z,101269.91
2022-10-09T14:09:13.413Z,101257.06
2022-10-09T14:11:41.421Z,101252.44
2022-10-09T14:14:09.489Z,101264.34
2022-10-09T14:16:37.850Z,101268.81
2022-10-09T14:19:06.141Z,101246.09
2022-10-09T14:21:34.593Z,101248.13
2022-10-09T14:24:03.614Z,101245.75
2022-10-09T14:26:34.132Z,101254.09
2022-10-09T14:29:04.003Z,101249.91
2022-10-09T14:31:32.267Z,101241.94
2022-10-09T14:34:00.419Z,101241.06
2022-10-09T14:36:29.126Z,101239.59
2022-10-09T14:38:57.188Z,101241.22
2022-10-09T14:41:25.503Z,101239.91
2022-10-09T14:43:57.791Z,101247.16
2022-10-09T14:46:26.099Z,101236.28
2022-10-09T14:48:55.101Z,101226.69
2022-10-09T14:51:26.182Z,101222.88
2022-10-09T14:53:57.695Z,101221.16
2022-10-09T14:56:25.715Z,101223.09
2022-10-09T14:58:53.840Z,101213.47
2022-10-09T15:01:23.588Z,101210.53
2022-10-09T15:03:51.911Z,101205.94
2022-10-09T15:06:24.123Z,101202.59
2022-10-09T15:08:52.726Z,101202.97
2022-10-09T15:11:20.905Z,101190.53
2022-10-09T15:13:48.892Z,101195.19
2022-10-09T15:16:17.796Z,101194.41
2022-10-09T15:18:47.457Z,101187.22
2022-10-09T15:21:16.749Z,101181.75
2022-10-09T15:23:44.863Z,101188.75
2022-10-09T15:26:13.479Z,101190.81
2022-10-09T15:28:42.540Z,101188.25
2022-10-09T15:31:18.200Z,101186.22
2022-10-09T15:33:47.579Z,101182.88
2022-10-09T15:36:15.691Z,101183.69
2022-10-09T15:38:43.673Z,101176.00
2022-10-09T15:41:20.300Z,101148.56
2022-10-09T15:43:48.395Z,101173.44
2022-10-09T15:46:16.442Z,101170.31
2022-10-09T15:48:44.495Z,101165.72
2022-10-09T15:51:14.018Z,101180.56
2022-10-09T15:53:42.331Z,101171.88
2022-10-09T15:56:11.018Z,101169.31
2022-10-09T15:58:38.967Z,101173.19
2022-10-09T16:01:08.077Z,101170.06
2022-10-09T16:03:37.203Z,101172.13
2022-10-09T16:06:06.758Z,101172.47
2022-10-09T16:08:36.252Z,101171.56
2022-10-09T16:11:05.643Z,101164.94
2022-10-09T16:13:33.694Z,101166.72
2022-10-09T16:16:01.656Z,101160.25
2022-10-09T16:18:29.822Z,101163.44
2022-10-09T16:20:57.825Z,101151.78
2022-10-09T16:23:25.782Z,101157.56
2022-10-09T16:25:59.241Z,101140.13
2022-10-09T16:28:27.533Z,101147.16
2022-10-09T16:30:55.529Z,101141.81
2022-10-09T16:33:23.491Z,101139.75
2022-10-09T16:35:51.509Z,101151.72
2022-10-09T16:38:19.649Z,101136.34
2022-10-09T16:41:03.523Z,101153.66
2022-10-09T16:43:35.163Z,101156.09
2022-10-09T16:46:13.360Z,101142.00
2022-10-09T16:48:41.583Z,101145.72
2022-10-09T16:51:11.145Z,101152.75
2022-10-09T16:53:39.091Z,101147.78
2022-10-09T16:56:11.234Z,101146.09
2022-10-09T16:58:40.829Z,101148.31
2022-10-09T17:01:10.269Z,101138.41
2022-10-09T17:03:40.525Z,101150.91
2022-10-09T17:06:10.236Z,101148.22
2022-10-09T17:08:38.317Z,101149.25
2022-10-09T17:11:07.968Z,101148.22
2022-10-09T17:13:36.017Z,101147.56
2022-10-09T17:16:07.392Z,101144.25
2022-10-09T17:18:35.539Z,101151.31
2022-10-09T17:21:04.236Z,101144.63
2022-10-09T17:23:32.155Z,101151.41
2022-10-09T17:26:00.542Z,101138.31
2022-10-09T17:28:28.630Z,101133.53
2022-10-09T17:30:56.580Z,101142.78
2022-10-09T17:33:26.032Z,101141.50
2022-10-09T17:35:54.362Z,101128.59
2022-10-09T17:38:23.425Z,101125.16
2022-10-09T17:40:51.426Z,101138.22
2022-10-09T17:43:19.439Z,101130.88
2022-10-09T17:45:49.474Z,101124.25
2022-10-09T17:48:17.765Z,101129.59
2022-10-09T17:50:52.895Z,101140.69
2022-10-09T17:53:22.644Z,101135.31
2022-10-09T17:55:58.119Z,101140.69
2022-10-09T17:58:26.248Z,101141.53
2022-10-09T18:00:54.582Z,101144.38
2022-10-09T18:03:22.616Z,101143.09
2022-10-09T18:05:52.340Z,101139.41
2022-10-09T18:08:20.529Z,101144.28
2022-10-09T18:10:48.498Z,101140.09
2022-10-09T18:13:16.541Z,101125.22
2022-10-09T18:15:44.842Z,101131.06
2022-10-09T18:18:12.801Z,101127.53
2022-10-09T18:20:41.907Z,101130.41
2022-10-09T18:23:11.328Z,101120.41
2022-10-09T18:25:41.787Z,101123.28
2022-10-09T18:28:10.515Z,101119.38
2022-10-09T18:30:42.306Z,101118.44
2022-10-09T18:33:10.590Z,101111.06
2022-10-09T18:35:38.662Z,101112.06
2022-10-09T18:38:11.044Z,101111.06
2022-10-09T18:40:45.197Z,101110.97
2022-10-09T18:43:13.535Z,101113.81
2022-10-09T18:45:44.123Z,101120.38
2022-10-09T18:48:12.196Z,101108.81
2022-10-09T18:50:41.197Z,101108.34
2022-10-09T18:53:09.193Z,101114.91
2022-10-09T18:55:37.123Z,101115.09
2022-10-09T18:58:06.483Z,101119.25
2022-10-09T19:00:37.044Z,101116.56
2022-10-09T19:03:05.361Z,101118.41
2022-10-09T19:05:33.313Z,101124.63
2022-10-09T19:08:01.573Z,101119.44
2022-10-09T19:10:29.713Z,101117.78
2022-10-09T19:12:57.749Z,101110.94
2022-10-09T19:15:27.119Z,101116.13
2022-10-09T19:17:55.191Z,101111.94
2022-10-09T19:20:24.771Z,101113.59
2022-10-09T19:22:52.819Z,101115.28
2022-10-09T19:25:21.038Z,101108.91
2022-10-09T19:27:49.333Z,101122.09
2022-10-09T19:30:17.973Z,101114.91
2022-10-09T19:32:47.663Z,101104.56
2022-10-09T19:35:16.210Z,101105.84
2022-10-09T19:37:44.186Z,101098.81
2022-10-09T19:40:12.242Z,101111.22
2022-10-09T19:42:40.200Z,101103.81
2022-10-09T19:45:09.389Z,101096.78
2022-10-09T19:47:37.749Z,101097.81
2022-10-09T19:50:07.753Z,101096.13
2022-10-09T19:52:35.717Z,101096.13
2022-10-09T19:55:03.791Z,101097.97
2022-10-09T19:57:31.708Z,101100.38
2022-10-09T19:59:59.684Z,101100.88
2022-10-09T20:02:27.746Z,101099.19
2022-10-09T20:04:57.364Z,101100.88
2022-10-09T20:07:26.769Z,101103.53
2022-10-09T20:09:55.170Z,101104.19
2022-10-09T20:12:23.132Z,101101.03
2022-10-09T20:14:51.087Z,101092.81
2022-10-09T20:17:19.061Z,101092.81
2022-10-09T20:19:47.035Z,101095.50
2022-10-09T20:22:14.976Z,101079.09
2022-10-09T20:24:44.289Z,101081.59
2022-10-09T20:27:12.248Z,101087.16
2022-10-09T20:29:40.541Z,101091.22
2022-10-09T20:32:08.696Z,101096.94
2022-10-09T20:34:36.726Z,101091.13
2022-10-09T20:37:05.094Z,101098.66
2022-10-09T20:39:33.057Z,101097.38
2022-10-09T20:42:02.458Z,101106.78
2022-10-09T20:44:30.425Z,101096.44
2022-10-09T20:46:58.406Z,101102.78
2022-10-09T20:49:26.372Z,101093.09
2022-10-09T20:51:54.941Z,101088.25
2022-10-09T20:54:23.093Z,101088.41
2022-10-09T20:56:51.126Z,101093.09
2022-10-09T20:59:20.837Z,101094.13
2022-10-09T21:01:48.766Z,101095.50
2022-10-09T21:04:16.743Z,101088.47
2022-10-09T21:06:44.686Z,101093.66
2022-10-09T21:09:12.580Z,101090.50
2022-10-09T21:11:42.754Z,101095.31
2022-10-09T21:14:12.224Z,101098.34
2022-10-09T21:16:41.733Z,101104.56
2022-10-09T21:19:11.544Z,101098.53
2022-10-09T21:21:39.485Z,101099.53
2022-10-09T21:24:07.619Z,101109.44
2022-10-09T21:26:35.963Z,101100.75
2022-10-09T21:29:04.690Z,101095.56
2022-10-09T21:31:32.975Z,101095.38
2022-10-09T21:34:02.578Z,101095.56
2022-10-09T21:36:34.012Z,101096.56
2022-10-09T21:39:01.982Z,101107.94
2022-10-09T21:41:29.898Z,101086.69
2022-10-09T21:43:57.912Z,101095.38
2022-10-09T21:46:26.083Z,101103.03
2022-10-09T21:48:54.246Z,101097.69
2022-10-09T21:51:23.588Z,101111.59
2022-10-09T21:53:51.527Z,101100.03
2022-10-09T21:56:19.454Z,101097.53
2022-10-09T21:58:49.138Z,101097.16
2022-10-09T22:01:17.354Z,101102.34
2022-10-09T22:03:45.355Z,101105.03
2022-10-09T22:06:18.624Z,101099.19
2022-10-09T22:08:48.956Z,101104.56
2022-10-09T22:11:17.072Z,101097.53
2022-10-09T22:13:45.050Z,101092.53
2022-10-09T22:16:14.724Z,101098.53
2022-10-09T22:18:42.939Z,101099.53
2022-10-09T22:21:12.244Z,101103.88
2022-10-09T22:23:41.917Z,101098.72
2022-10-09T22:26:13.248Z,101099.91
2022-10-09T22:28:41.484Z,101095.00
2022-10-09T22:31:10.250Z,101092.34
2022-10-09T22:33:38.830Z,101091.81
2022-10-09T22:36:07.836Z,101094.50
2022-10-09T22:38:36.425Z,101088.47
2022-10-09T22:41:05.926Z,101093.00
2022-10-09T22:43:35.585Z,101091.81
2022-10-09T22:46:08.126Z,101086.63
2022-10-09T22:48:36.091Z,101081.09
2022-10-09T22:51:06.106Z,101088.13
2022-10-09T22:53:34.485Z,101088.13
2022-10-09T22:56:02.758Z,101084.41
2022-10-09T22:58:30.996Z,101084.97
2022-10-09T23:01:03.371Z,101079.78
2022-10-09T23:03:31.775Z,101087.81
2022-10-09T23:06:07.289Z,101078.47
2022-10-09T23:08:35.252Z,101080.88
2022-10-09T23:11:03.226Z,101083.22
2022-10-09T23:13:31.306Z,101084.88
2022-10-09T23:16:02.054Z,101084.72
2022-10-09T23:18:30.099Z,101080.16
2022-10-09T23:21:00.218Z,101071.56
2022-10-09T23:23:29.621Z,101083.13
2022-10-09T23:25:57.536Z,101080.44
2022-10-09T23:28:27.694Z,101084.28
2022-10-09T23:31:03.508Z,101086.81
2022-10-09T23:33:31.461Z,101089.84
2022-10-09T23:35:59.415Z,101077.16
2022-10-09T23:38:27.453Z,101083.16
2022-10-09T23:40:57.538Z,101085.84
2022-10-09T23:43:25.603Z,101101.91
2022-10-09T23:45:55.370Z,101083.88
2022-10-09T23:48:24.709Z,101094.06
2022-10-09T23:50:52.799Z,101085.50
2022-10-09T23:53:21.858Z,101088.47
2022-10-09T23:55:50.037Z,101087.47
2022-10-09T23:58:20.897Z,101094.78
